map of DSA home
DSA - Airport
Location
City:  Doncaster/Sheffield, Yorkshire, England, United Kingdom
Name:Robin Hood Airport
Old (Alt.):RAF Finningley
ICAO:EGCN
IATA:DSA

Details
Type:Airport (Aerodrome, Airfield)
Use:Public/Civil, International (customs port of entry)
Latitude:5328'29"N (53.474722)
Longitude:100'16"W (-1.004443)
Datum:WGS 1984
Elevation:55 ft (17 m)
Variation:0.88W (WMM2015 magnetic declination)
0.16 annual change
Runways:1
Longest:9491 × 197 ft (2893 × 60 m), paved

Time
Time Zone:UTC+0
Local Time:

Weather
METAR:EGCN 251420Z 20015KT 170V230 CAVOK 17/03 Q1034
TAF:EGCN 251100Z 2512/2612 21011KT 9999 FEW045 PROB30
TEMPO 2521/2606 23015G25KT

Related Locations
Nearby:
Farthest:NZBA: 11786 mi / 18968 km
Balclutha, OTA, NZ

Find:

   beyond  
but within

Other Information
Maps:
NOTAMs:
Links:
Sources:

  
  • flag of United Kingdom
  • flag of England
  

Sectional Chart

Flight Planning
at skyvector.com

Satellite Image

Google Maps Satellite view

 

Copyright © 2004-2018 Karl L. Swartz. All rights reserved.
The Great Circle Mapper name and logo are trademarks of the Great Circle Mapper.
All other trademarks mentioned herein belong to their respective owners.
Please see credits for attibutions and further copyright information.

  Follow gcmap on Facebook Follow gcmap on Twitter Follow gcmap on Google+ GCmap on LinkedIn

hCard Microformat

Geo Microformat